Time;durP1;ratioP1;P1;durP2;ratioP2;P2;SDS_P1;SDS_P2;PMS_P1;PMS_P2;Temp;Humidity;BMP_temperature;BMP_pressure;BME280_temperature;BME280_humidity;BME280_pressure;Samples;Min_cycle;Max_cycle;Signal;HPM_P1;HPM_P2
2024/04/24 00:02:01;;;;;;;5.70;1.10;;;;;;;;;;5311645;26;20012;-59
2024/04/24 00:04:28;;;;;;;3.80;1.25;;;;;;;;;;5309226;26;20018;-59
2024/04/24 00:06:55;;;;;;;4.18;1.23;;;;;;;;;;5312910;26;20017;-58
2024/04/24 00:09:21;;;;;;;3.08;0.80;;;;;;;;;;5308494;26;20008;-59
2024/04/24 00:11:48;;;;;;;8.30;1.08;;;;;;;;;;5308577;26;20005;-59
2024/04/24 00:14:14;;;;;;;2.65;0.95;;;;;;;;;;5313646;26;20427;-58
2024/04/24 00:16:41;;;;;;;2.83;0.88;;;;;;;;;;5308505;26;27486;-60
2024/04/24 00:19:08;;;;;;;8.25;1.02;;;;;;;;;;5306656;26;20077;-59
2024/04/24 00:21:34;;;;;;;3.22;0.88;;;;;;;;;;5305188;26;20011;-59
2024/04/24 00:24:01;;;;;;;4.03;0.82;;;;;;;;;;5310861;26;19997;-57
2024/04/24 00:26:27;;;;;;;2.60;0.80;;;;;;;;;;5306224;26;20089;-62
2024/04/24 00:29:14;;;;;;;3.40;1.02;;;;;;;;;;5282098;26;20186;-56
2024/04/24 00:31:40;;;;;;;3.53;1.05;;;;;;;;;;5302436;26;20024;-61
2024/04/24 00:34:07;;;;;;;5.28;1.23;;;;;;;;;;5303337;26;19997;-60
2024/04/24 00:36:34;;;;;;;1.85;0.90;;;;;;;;;;5292806;26;20001;-59
2024/04/24 00:39:00;;;;;;;5.10;1.10;;;;;;;;;;5306057;26;20288;-59
2024/04/24 00:41:27;;;;;;;5.50;1.33;;;;;;;;;;5306595;26;20013;-61
2024/04/24 00:43:53;;;;;;;2.58;0.80;;;;;;;;;;5303281;26;20009;-57
2024/04/24 00:46:23;;;;;;;2.72;0.90;;;;;;;;;;5301938;26;20560;-59
2024/04/24 00:48:49;;;;;;;2.17;0.90;;;;;;;;;;5288055;26;20041;-56
2024/04/24 00:51:16;;;;;;;10.10;1.50;;;;;;;;;;5301756;26;20001;-60
2024/04/24 00:53:43;;;;;;;5.03;1.70;;;;;;;;;;5303425;26;20001;-59
2024/04/24 00:56:10;;;;;;;4.75;0.88;;;;;;;;;;5302394;26;20013;-60
2024/04/24 00:58:39;;;;;;;2.78;0.75;;;;;;;;;;5304044;26;19998;-60
2024/04/24 01:01:06;;;;;;;3.13;1.45;;;;;;;;;;5302578;26;20025;-57
2024/04/24 01:03:33;;;;;;;1.30;0.77;;;;;;;;;;5303315;26;20531;-62
2024/04/24 01:06:19;;;;;;;6.90;1.73;;;;;;;;;;5257290;26;20479;-63
2024/04/24 01:08:46;;;;;;;1.95;0.80;;;;;;;;;;5233764;27;20398;-57
2024/04/24 01:11:12;;;;;;;4.25;0.90;;;;;;;;;;5205053;27;20494;-58
2024/04/24 01:13:39;;;;;;;3.47;0.88;;;;;;;;;;5232503;27;20468;-58
2024/04/24 01:16:09;;;;;;;4.32;0.93;;;;;;;;;;5234929;27;20077;-58
2024/04/24 01:18:39;;;;;;;3.85;0.90;;;;;;;;;;5235797;27;20007;-54
2024/04/24 01:21:06;;;;;;;3.35;1.08;;;;;;;;;;5215512;27;20027;-57
2024/04/24 01:23:48;;;;;;;4.47;0.90;;;;;;;;;;5234704;27;20011;-61
2024/04/24 01:26:25;;;;;;;2.33;0.90;;;;;;;;;;5235142;27;20380;-59
2024/04/24 01:29:11;;;;;;;3.03;0.90;;;;;;;;;;5235213;26;20143;-52
2024/04/24 01:31:38;;;;;;;5.65;1.05;;;;;;;;;;5234795;27;20021;-56
2024/04/24 01:34:05;;;;;;;5.30;0.90;;;;;;;;;;5233764;27;20014;-60
2024/04/24 01:36:31;;;;;;;2.30;0.85;;;;;;;;;;5235417;27;20026;-59
2024/04/24 01:38:58;;;;;;;1.35;1.05;;;;;;;;;;5234291;26;20082;-59
2024/04/24 01:41:25;;;;;;;3.55;1.30;;;;;;;;;;5234604;27;20061;-59
2024/04/24 01:43:51;;;;;;;1.73;0.75;;;;;;;;;;5253114;26;20013;-60
2024/04/24 01:46:18;;;;;;;1.92;1.23;;;;;;;;;;5267323;26;20013;-58
2024/04/24 01:48:44;;;;;;;3.50;1.25;;;;;;;;;;5267551;26;20016;-58
2024/04/24 01:51:11;;;;;;;2.40;1.33;;;;;;;;;;5270214;26;19994;-58
2024/04/24 01:53:38;;;;;;;2.13;0.80;;;;;;;;;;5268678;26;20011;-58
2024/04/24 01:56:04;;;;;;;1.60;1.10;;;;;;;;;;5267459;26;20053;-57
2024/04/24 01:58:31;;;;;;;3.78;1.08;;;;;;;;;;5267620;26;20078;-58
2024/04/24 02:00:58;;;;;;;6.28;1.10;;;;;;;;;;5269138;26;20022;-51
2024/04/24 02:03:24;;;;;;;2.58;0.90;;;;;;;;;;5240811;26;20020;-52
2024/04/24 02:05:51;;;;;;;4.68;1.30;;;;;;;;;;5268368;26;19998;-57
2024/04/24 02:08:17;;;;;;;4.32;1.00;;;;;;;;;;5308709;26;20480;-57
2024/04/24 02:10:44;;;;;;;3.65;1.17;;;;;;;;;;5304134;26;20002;-54
2024/04/24 02:13:10;;;;;;;5.60;1.02;;;;;;;;;;5307426;26;20644;-52
2024/04/24 02:15:37;;;;;;;3.90;1.73;;;;;;;;;;5305874;26;20005;-58
2024/04/24 02:18:05;;;;;;;6.00;1.42;;;;;;;;;;5309235;26;20468;-60
2024/04/24 02:20:31;;;;;;;4.13;1.00;;;;;;;;;;5303135;26;20009;-57
2024/04/24 02:22:59;;;;;;;3.20;0.93;;;;;;;;;;5307177;26;20027;-58
2024/04/24 02:25:36;;;;;;;6.30;0.98;;;;;;;;;;5304814;26;22416;-55
2024/04/24 02:28:02;;;;;;;2.97;1.10;;;;;;;;;;5305649;26;20364;-57
2024/04/24 02:30:30;;;;;;;4.28;1.20;;;;;;;;;;5306982;26;20929;-58
2024/04/24 02:32:56;;;;;;;3.72;0.88;;;;;;;;;;5299892;26;20016;-52
2024/04/24 02:35:23;;;;;;;5.20;1.10;;;;;;;;;;5292098;26;20017;-62
2024/04/24 02:37:49;;;;;;;5.53;1.20;;;;;;;;;;5303417;26;20013;-58
2024/04/24 02:40:16;;;;;;;5.32;1.05;;;;;;;;;;5304698;26;20014;-56
2024/04/24 02:42:43;;;;;;;4.43;1.15;;;;;;;;;;5306398;26;20496;-58
2024/04/24 02:45:09;;;;;;;14.05;1.45;;;;;;;;;;5306090;26;20029;-62
2024/04/24 02:47:36;;;;;;;5.40;1.25;;;;;;;;;;5303424;26;20051;-58
2024/04/24 02:50:03;;;;;;;6.28;1.30;;;;;;;;;;5304793;26;20001;-56
2024/04/24 02:52:29;;;;;;;4.05;1.10;;;;;;;;;;5303739;26;20003;-59
2024/04/24 02:54:56;;;;;;;4.40;0.90;;;;;;;;;;5308818;26;20094;-59
2024/04/24 02:57:22;;;;;;;3.78;1.25;;;;;;;;;;5305628;26;20025;-59
2024/04/24 02:59:49;;;;;;;3.92;1.23;;;;;;;;;;5308158;26;20009;-58
2024/04/24 03:02:16;;;;;;;4.75;1.27;;;;;;;;;;5304289;26;20001;-61
2024/04/24 03:04:42;;;;;;;3.00;1.10;;;;;;;;;;5304542;26;20016;-64
2024/04/24 03:07:09;;;;;;;1.55;1.10;;;;;;;;;;5306092;26;20009;-59
2024/04/24 03:09:36;;;;;;;5.20;1.48;;;;;;;;;;5302465;26;20049;-57
2024/04/24 03:12:02;;;;;;;3.53;1.35;;;;;;;;;;5305841;26;20021;-59
2024/04/24 03:14:30;;;;;;;7.28;1.30;;;;;;;;;;5306197;26;20472;-59
2024/04/24 03:16:56;;;;;;;3.65;1.10;;;;;;;;;;5307375;26;20012;-57
2024/04/24 03:19:23;;;;;;;4.18;0.88;;;;;;;;;;5304377;26;20013;-58
2024/04/24 03:21:49;;;;;;;4.70;1.10;;;;;;;;;;5303167;26;20012;-55
2024/04/24 03:24:16;;;;;;;7.13;1.40;;;;;;;;;;5308283;26;20016;-53
2024/04/24 03:26:43;;;;;;;11.20;1.33;;;;;;;;;;5306078;26;20419;-57
2024/04/24 03:29:09;;;;;;;2.08;1.20;;;;;;;;;;5305130;26;20083;-59
2024/04/24 03:31:36;;;;;;;6.75;1.50;;;;;;;;;;5304569;26;20009;-56
2024/04/24 03:34:02;;;;;;;4.22;1.30;;;;;;;;;;5311566;26;20009;-54
2024/04/24 03:36:29;;;;;;;7.18;1.55;;;;;;;;;;5294863;26;20024;-57
2024/04/24 03:38:56;;;;;;;4.32;1.05;;;;;;;;;;5302197;26;20013;-59
2024/04/24 03:41:23;;;;;;;3.30;1.45;;;;;;;;;;5305130;26;20052;-59
2024/04/24 03:43:49;;;;;;;4.80;1.17;;;;;;;;;;5273735;26;20632;-57
2024/04/24 03:46:16;;;;;;;5.85;1.17;;;;;;;;;;5306406;26;20001;-57
2024/04/24 03:48:43;;;;;;;3.78;1.40;;;;;;;;;;5307362;26;19998;-59
2024/04/24 03:51:09;;;;;;;4.90;1.40;;;;;;;;;;5310955;26;20446;-61
2024/04/24 03:53:36;;;;;;;7.68;2.05;;;;;;;;;;5310651;26;20020;-60
2024/04/24 03:56:02;;;;;;;6.82;1.17;;;;;;;;;;5308231;26;19997;-60
2024/04/24 03:58:29;;;;;;;5.78;1.25;;;;;;;;;;5277297;26;20010;-59
2024/04/24 04:00:56;;;;;;;9.73;1.45;;;;;;;;;;5310023;26;20372;-58
2024/04/24 04:03:22;;;;;;;17.05;2.50;;;;;;;;;;5309148;26;20009;-54
2024/04/24 04:05:49;;;;;;;11.00;2.03;;;;;;;;;;5253719;26;20044;-61
2024/04/24 04:08:15;;;;;;;5.13;1.55;;;;;;;;;;5308378;26;20004;-59
2024/04/24 04:10:42;;;;;;;11.05;2.22;;;;;;;;;;5309435;26;20074;-61
2024/04/24 04:13:08;;;;;;;4.68;1.83;;;;;;;;;;5310062;26;20002;-60
2024/04/24 04:15:35;;;;;;;8.15;1.98;;;;;;;;;;5312446;26;21028;-59
2024/04/24 04:18:02;;;;;;;4.35;1.70;;;;;;;;;;5311540;26;20017;-59
2024/04/24 04:20:48;;;;;;;6.60;1.10;;;;;;;;;;5287407;27;20002;-62
2024/04/24 04:23:15;;;;;;;4.70;1.42;;;;;;;;;;5287974;27;20130;-58
2024/04/24 04:25:42;;;;;;;5.57;1.40;;;;;;;;;;5284898;27;20092;-58
2024/04/24 04:28:08;;;;;;;8.77;1.70;;;;;;;;;;5288370;26;20505;-58
2024/04/24 04:30:35;;;;;;;6.85;2.60;;;;;;;;;;5286136;26;20021;-61
2024/04/24 04:33:02;;;;;;;6.65;2.17;;;;;;;;;;5285851;27;20156;-57
2024/04/24 04:35:29;;;;;;;7.70;2.17;;;;;;;;;;5283379;26;20009;-61
2024/04/24 04:37:55;;;;;;;9.55;1.77;;;;;;;;;;5285192;27;20049;-60
2024/04/24 04:40:22;;;;;;;8.70;1.75;;;;;;;;;;5285529;27;20462;-60
2024/04/24 04:42:48;;;;;;;6.47;1.73;;;;;;;;;;5284098;27;20002;-60
2024/04/24 04:45:17;;;;;;;6.32;1.38;;;;;;;;;;5284066;27;20005;-56
2024/04/24 04:47:43;;;;;;;6.50;1.40;;;;;;;;;;5258358;27;20005;-60
2024/04/24 04:50:10;;;;;;;3.92;1.30;;;;;;;;;;5287012;27;20261;-58
2024/04/24 04:52:37;;;;;;;4.43;1.35;;;;;;;;;;5191738;27;20414;-61
2024/04/24 04:55:03;;;;;;;6.57;1.40;;;;;;;;;;5287328;27;20036;-58
2024/04/24 04:57:30;;;;;;;5.97;1.50;;;;;;;;;;5289709;26;20200;-60
2024/04/24 04:59:57;;;;;;;2.40;1.38;;;;;;;;;;5305912;26;20013;-60
2024/04/24 05:02:23;;;;;;;2.88;1.00;;;;;;;;;;5310757;26;20029;-59
2024/04/24 05:04:50;;;;;;;6.10;1.30;;;;;;;;;;5310930;26;20009;-56
2024/04/24 05:07:16;;;;;;;7.38;1.13;;;;;;;;;;5310993;26;20029;-60
2024/04/24 05:09:44;;;;;;;5.47;1.40;;;;;;;;;;5255336;26;20056;-60
2024/04/24 05:12:11;;;;;;;6.20;1.17;;;;;;;;;;5289947;26;20029;-57
2024/04/24 05:14:38;;;;;;;2.45;1.00;;;;;;;;;;5316330;26;20001;-59
2024/04/24 05:17:04;;;;;;;4.97;0.93;;;;;;;;;;5314012;26;20465;-56
2024/04/24 05:19:31;;;;;;;7.90;1.00;;;;;;;;;;5308763;26;20005;-60
2024/04/24 05:21:58;;;;;;;4.65;1.23;;;;;;;;;;5314536;26;19997;-59
2024/04/24 05:24:24;;;;;;;3.25;0.90;;;;;;;;;;5315596;26;20427;-57
2024/04/24 05:29:36;;;;;;;3.10;1.00;;;;;;;;;;5310363;26;20055;-58
2024/04/24 05:32:02;;;;;;;2.50;1.38;;;;;;;;;;5311298;26;20004;-59
2024/04/24 05:34:29;;;;;;;2.58;1.05;;;;;;;;;;5310272;26;20001;-56
2024/04/24 05:36:57;;;;;;;8.30;1.30;;;;;;;;;;5310843;26;20259;-58
2024/04/24 05:39:23;;;;;;;8.70;1.48;;;;;;;;;;5308212;26;20009;-58
2024/04/24 05:41:50;;;;;;;4.68;1.10;;;;;;;;;;5307505;26;20002;-59
2024/04/24 05:44:18;;;;;;;3.83;0.90;;;;;;;;;;5308144;26;20367;-58
2024/04/24 05:46:44;;;;;;;3.92;1.20;;;;;;;;;;5310518;26;23077;-57
2024/04/24 05:49:11;;;;;;;5.20;1.27;;;;;;;;;;5312462;26;20394;-57
2024/04/24 05:51:38;;;;;;;4.70;1.05;;;;;;;;;;5310401;26;20029;-60
2024/04/24 05:54:04;;;;;;;11.50;1.52;;;;;;;;;;5310668;26;21139;-59
2024/04/24 05:56:31;;;;;;;5.88;1.17;;;;;;;;;;5304469;26;20038;-57
2024/04/24 05:58:57;;;;;;;6.20;1.27;;;;;;;;;;5308514;26;20012;-58
2024/04/24 06:01:24;;;;;;;4.50;1.17;;;;;;;;;;5307875;26;20004;-58
2024/04/24 06:03:51;;;;;;;3.33;1.38;;;;;;;;;;5307520;26;20000;-56
2024/04/24 06:06:17;;;;;;;6.68;1.20;;;;;;;;;;5306303;26;20010;-57
2024/04/24 06:08:44;;;;;;;4.35;1.77;;;;;;;;;;5305406;26;20443;-58
2024/04/24 06:11:11;;;;;;;6.13;1.40;;;;;;;;;;5308075;26;20010;-59
2024/04/24 06:13:37;;;;;;;9.88;1.88;;;;;;;;;;5308998;26;20040;-57
2024/04/24 06:16:04;;;;;;;3.72;1.10;;;;;;;;;;5307293;26;20004;-56
2024/04/24 06:18:31;;;;;;;5.65;1.63;;;;;;;;;;5305922;26;20112;-57
2024/04/24 06:20:57;;;;;;;3.90;1.13;;;;;;;;;;5308354;26;20001;-56
2024/04/24 06:23:24;;;;;;;3.13;1.13;;;;;;;;;;5306476;26;20449;-56
2024/04/24 06:25:51;;;;;;;5.38;1.35;;;;;;;;;;5307222;26;20524;-60
2024/04/24 06:28:17;;;;;;;5.90;1.17;;;;;;;;;;5305753;26;20002;-60
2024/04/24 06:30:44;;;;;;;5.65;1.48;;;;;;;;;;5307635;26;20864;-58
2024/04/24 06:33:10;;;;;;;3.15;1.45;;;;;;;;;;5276179;26;20397;-55
2024/04/24 06:35:37;;;;;;;6.00;1.13;;;;;;;;;;5307291;26;20002;-59
2024/04/24 06:38:04;;;;;;;11.43;1.77;;;;;;;;;;5307788;26;20113;-55
2024/04/24 06:40:30;;;;;;;8.55;1.60;;;;;;;;;;5307784;26;20337;-60
2024/04/24 06:42:57;;;;;;;4.65;1.77;;;;;;;;;;5309142;26;20005;-59
2024/04/24 06:45:24;;;;;;;5.95;1.50;;;;;;;;;;5310725;26;20009;-61
2024/04/24 06:47:50;;;;;;;6.13;1.30;;;;;;;;;;5306362;26;20335;-59
2024/04/24 06:50:17;;;;;;;2.78;1.30;;;;;;;;;;5304209;26;20002;-60
2024/04/24 06:52:44;;;;;;;3.15;1.35;;;;;;;;;;5310331;26;20006;-57
2024/04/24 06:55:10;;;;;;;7.45;1.48;;;;;;;;;;5309479;26;20022;-60
2024/04/24 06:57:37;;;;;;;3.38;1.45;;;;;;;;;;5298765;26;20017;-61
2024/04/24 07:00:04;;;;;;;9.40;1.52;;;;;;;;;;5306841;26;20062;-58
2024/04/24 07:02:30;;;;;;;4.20;1.50;;;;;;;;;;5278718;26;20005;-56
2024/04/24 07:04:57;;;;;;;7.53;1.80;;;;;;;;;;5309715;26;20005;-60
2024/04/24 07:07:24;;;;;;;4.20;1.85;;;;;;;;;;5306079;26;20008;-60
2024/04/24 07:09:50;;;;;;;4.32;1.67;;;;;;;;;;5312472;26;20051;-57
2024/04/24 07:12:17;;;;;;;6.65;1.90;;;;;;;;;;5309290;26;20034;-57
2024/04/24 07:14:44;;;;;;;2.30;1.52;;;;;;;;;;5310296;26;20382;-60
2024/04/24 07:17:10;;;;;;;8.75;2.00;;;;;;;;;;5311750;26;20056;-60
2024/04/24 07:19:37;;;;;;;3.78;1.70;;;;;;;;;;5309690;26;20021;-58
2024/04/24 07:22:04;;;;;;;8.57;1.35;;;;;;;;;;5309286;26;19998;-60
2024/04/24 07:24:32;;;;;;;2.92;1.30;;;;;;;;;;5283317;26;20070;-58
2024/04/24 07:26:58;;;;;;;6.28;1.88;;;;;;;;;;5310159;26;20013;-61
2024/04/24 07:29:25;;;;;;;4.68;1.58;;;;;;;;;;5284970;26;20002;-54
2024/04/24 07:31:51;;;;;;;10.82;1.77;;;;;;;;;;5313297;26;20415;-57
2024/04/24 07:34:18;;;;;;;5.35;1.70;;;;;;;;;;5314330;26;20009;-57
2024/04/24 07:36:46;;;;;;;12.68;2.03;;;;;;;;;;5313037;26;20021;-58
2024/04/24 07:39:12;;;;;;;5.13;1.83;;;;;;;;;;5315446;26;20020;-60
2024/04/24 07:41:39;;;;;;;8.98;1.55;;;;;;;;;;5315490;26;20009;-57
2024/04/24 07:44:05;;;;;;;3.60;1.48;;;;;;;;;;5313418;26;20024;-58
2024/04/24 07:46:32;;;;;;;5.43;1.70;;;;;;;;;;5304341;26;20013;-57
2024/04/24 07:48:59;;;;;;;12.13;1.90;;;;;;;;;;5314768;26;20002;-59
2024/04/24 07:51:26;;;;;;;9.23;2.22;;;;;;;;;;5308818;26;20002;-59
2024/04/24 07:53:52;;;;;;;5.50;2.13;;;;;;;;;;5313718;26;20017;-56
2024/04/24 07:56:19;;;;;;;11.43;2.00;;;;;;;;;;5281263;26;20505;-60
2024/04/24 07:58:45;;;;;;;5.15;1.85;;;;;;;;;;5314666;26;19993;-57
2024/04/24 08:01:12;;;;;;;8.85;1.67;;;;;;;;;;5310260;26;20087;-59
2024/04/24 08:03:39;;;;;;;10.25;2.00;;;;;;;;;;5311017;26;20013;-57
2024/04/24 08:06:06;;;;;;;6.60;1.85;;;;;;;;;;5310050;26;20012;-60
2024/04/24 08:08:36;;;;;;;7.85;1.75;;;;;;;;;;5311369;26;20004;-59
2024/04/24 08:11:04;;;;;;;6.55;1.40;;;;;;;;;;5313409;26;20005;-57
2024/04/24 08:13:30;;;;;;;8.35;2.42;;;;;;;;;;5307236;26;20853;-59
2024/04/24 08:15:57;;;;;;;12.10;3.05;;;;;;;;;;5310816;26;19996;-60
2024/04/24 08:18:23;;;;;;;8.25;1.67;;;;;;;;;;5314268;26;20020;-57
2024/04/24 08:20:50;;;;;;;8.32;1.75;;;;;;;;;;5310369;26;20008;-59
2024/04/24 08:23:17;;;;;;;13.93;2.22;;;;;;;;;;5310191;26;20049;-60
2024/04/24 08:25:43;;;;;;;10.32;2.08;;;;;;;;;;5311155;26;20028;-59
2024/04/24 08:28:10;;;;;;;12.43;2.88;;;;;;;;;;5313200;26;19997;-58
2024/04/24 08:30:36;;;;;;;10.85;2.10;;;;;;;;;;5315320;26;20016;-56
2024/04/24 08:33:03;;;;;;;19.98;2.83;;;;;;;;;;5311027;26;20010;-56
2024/04/24 08:35:30;;;;;;;8.70;2.08;;;;;;;;;;5307935;26;20878;-57
2024/04/24 08:37:57;;;;;;;13.50;2.00;;;;;;;;;;5312614;26;20040;-57
2024/04/24 08:40:23;;;;;;;12.27;2.10;;;;;;;;;;5315827;26;20055;-56
2024/04/24 08:42:50;;;;;;;7.80;1.63;;;;;;;;;;5313488;26;20009;-54
2024/04/24 08:45:17;;;;;;;9.10;2.13;;;;;;;;;;5316088;26;20001;-57
2024/04/24 08:47:44;;;;;;;14.98;2.00;;;;;;;;;;5311691;26;20017;-58
2024/04/24 08:50:11;;;;;;;10.27;1.80;;;;;;;;;;5310105;26;20011;-57
2024/04/24 08:52:41;;;;;;;7.10;1.67;;;;;;;;;;5310087;26;20020;-57
2024/04/24 08:55:08;;;;;;;6.82;1.65;;;;;;;;;;5312002;26;20079;-60
2024/04/24 08:57:36;;;;;;;14.93;1.98;;;;;;;;;;5310140;26;20543;-57
2024/04/24 09:00:03;;;;;;;7.13;2.10;;;;;;;;;;5311879;26;20005;-56
2024/04/24 09:02:33;;;;;;;8.75;1.73;;;;;;;;;;5311279;26;20002;-58
2024/04/24 09:05:00;;;;;;;19.52;2.58;;;;;;;;;;5309470;26;20005;-58
2024/04/24 09:07:27;;;;;;;6.05;1.42;;;;;;;;;;5309176;26;20001;-59
2024/04/24 09:09:54;;;;;;;7.35;1.50;;;;;;;;;;5312164;26;20018;-58
2024/04/24 09:12:22;;;;;;;5.45;1.15;;;;;;;;;;5312841;26;20059;-55
2024/04/24 09:14:48;;;;;;;8.80;2.03;;;;;;;;;;5310377;26;20002;-57
2024/04/24 09:17:15;;;;;;;16.20;1.98;;;;;;;;;;5312707;26;20023;-55
2024/04/24 09:19:42;;;;;;;12.25;2.13;;;;;;;;;;5312857;26;20089;-58
2024/04/24 09:22:09;;;;;;;8.25;1.83;;;;;;;;;;5313875;26;20005;-57
2024/04/24 09:24:36;;;;;;;10.18;1.92;;;;;;;;;;5305712;26;20019;-59
2024/04/24 09:27:03;;;;;;;6.70;1.85;;;;;;;;;;5310845;26;20076;-58
2024/04/24 09:29:30;;;;;;;10.02;2.13;;;;;;;;;;5312474;26;20107;-57
2024/04/24 09:31:57;;;;;;;11.15;1.67;;;;;;;;;;5309824;26;20096;-58
2024/04/24 09:34:27;;;;;;;12.98;1.98;;;;;;;;;;5311785;26;19997;-61
2024/04/24 09:36:56;;;;;;;13.00;2.05;;;;;;;;;;5310921;26;20041;-59
2024/04/24 09:39:22;;;;;;;14.45;1.95;;;;;;;;;;5311072;26;20565;-58
2024/04/24 09:41:50;;;;;;;5.57;2.38;;;;;;;;;;5311121;26;20016;-57
2024/04/24 09:44:18;;;;;;;10.00;1.60;;;;;;;;;;5309106;26;20001;-57
2024/04/24 09:46:47;;;;;;;15.63;2.10;;;;;;;;;;5308307;26;20012;-57
2024/04/24 09:49:14;;;;;;;8.10;1.50;;;;;;;;;;5315429;26;20016;-56
2024/04/24 09:51:41;;;;;;;8.48;1.80;;;;;;;;;;5312494;26;20099;-59
2024/04/24 09:54:08;;;;;;;12.60;2.15;;;;;;;;;;5318098;26;20441;-58
2024/04/24 09:56:42;;;;;;;7.72;1.88;;;;;;;;;;5286782;26;20021;-58
2024/04/24 09:59:10;;;;;;;5.32;1.80;;;;;;;;;;5284509;26;20001;-58
2024/04/24 10:01:38;;;;;;;5.10;1.85;;;;;;;;;;5310615;26;20009;-60
2024/04/24 10:04:04;;;;;;;2.33;1.40;;;;;;;;;;5312695;26;20489;-59
2024/04/24 10:06:32;;;;;;;5.75;1.13;;;;;;;;;;5307282;26;20011;-57
2024/04/24 10:09:00;;;;;;;2.70;1.20;;;;;;;;;;5312996;26;20092;-61
2024/04/24 10:11:32;;;;;;;7.78;1.58;;;;;;;;;;5314180;26;20005;-60
2024/04/24 10:13:58;;;;;;;2.78;0.90;;;;;;;;;;5313243;26;20041;-58
2024/04/24 10:16:26;;;;;;;1.95;0.90;;;;;;;;;;5310999;26;19996;-57
2024/04/24 10:18:54;;;;;;;7.22;1.58;;;;;;;;;;5308858;26;20053;-60
2024/04/24 10:21:22;;;;;;;3.00;1.13;;;;;;;;;;5279387;26;20002;-61
2024/04/24 10:23:49;;;;;;;4.72;1.30;;;;;;;;;;5308747;26;19998;-56
2024/04/24 10:26:16;;;;;;;7.70;1.30;;;;;;;;;;5283794;26;20449;-58
2024/04/24 10:28:43;;;;;;;2.88;1.35;;;;;;;;;;5310358;26;20725;-57
2024/04/24 10:31:12;;;;;;;2.63;1.23;;;;;;;;;;5312087;26;20022;-56
2024/04/24 10:33:39;;;;;;;4.97;1.33;;;;;;;;;;5319297;26;20013;-57
2024/04/24 10:36:06;;;;;;;2.15;1.10;;;;;;;;;;5310670;26;20086;-56
2024/04/24 10:38:34;;;;;;;5.28;1.10;;;;;;;;;;5313074;26;20047;-57
2024/04/24 10:41:01;;;;;;;2.97;1.35;;;;;;;;;;5309110;26;20013;-56
2024/04/24 10:43:33;;;;;;;8.85;1.38;;;;;;;;;;5310197;26;20017;-55
2024/04/24 10:46:02;;;;;;;10.68;1.30;;;;;;;;;;5309874;26;20001;-59
2024/04/24 10:48:47;;;;;;;2.20;1.42;;;;;;;;;;5312078;26;20012;-57
2024/04/24 10:51:14;;;;;;;4.28;1.20;;;;;;;;;;5309189;26;20347;-55
2024/04/24 10:53:47;;;;;;;4.55;1.30;;;;;;;;;;5278296;26;20680;-54
2024/04/24 10:56:17;;;;;;;6.82;1.30;;;;;;;;;;5312473;26;21003;-56
2024/04/24 10:58:53;;;;;;;1.52;1.13;;;;;;;;;;5309558;26;20122;-63
2024/04/24 11:01:21;;;;;;;2.75;1.45;;;;;;;;;;5315815;26;20008;-62
2024/04/24 11:03:48;;;;;;;2.30;1.30;;;;;;;;;;5312172;26;20002;-55
2024/04/24 11:06:14;;;;;;;2.75;1.42;;;;;;;;;;5313439;26;20849;-58
2024/04/24 11:08:42;;;;;;;6.05;1.60;;;;;;;;;;5316217;26;20369;-58
2024/04/24 11:11:08;;;;;;;9.73;1.67;;;;;;;;;;5316064;26;20434;-57
2024/04/24 11:13:35;;;;;;;6.50;1.70;;;;;;;;;;5310835;26;20012;-60
2024/04/24 11:16:02;;;;;;;5.82;1.77;;;;;;;;;;5312131;26;20009;-58
2024/04/24 11:18:29;;;;;;;1.85;1.20;;;;;;;;;;5279091;26;20081;-57
2024/04/24 11:20:56;;;;;;;9.27;1.60;;;;;;;;;;5313469;26;19994;-57
2024/04/24 11:23:22;;;;;;;6.65;1.60;;;;;;;;;;5308813;26;20534;-60
2024/04/24 11:25:50;;;;;;;2.58;1.40;;;;;;;;;;5312116;26;20002;-56
2024/04/24 11:28:18;;;;;;;6.85;1.52;;;;;;;;;;5314243;26;20013;-57
2024/04/24 11:30:46;;;;;;;7.50;1.98;;;;;;;;;;5313731;26;20443;-61
2024/04/24 11:33:13;;;;;;;4.90;1.65;;;;;;;;;;5309437;26;20018;-58
2024/04/24 11:35:42;;;;;;;5.93;1.52;;;;;;;;;;5308697;26;20005;-58
2024/04/24 11:38:08;;;;;;;4.53;1.85;;;;;;;;;;5310893;26;19997;-60
2024/04/24 11:40:35;;;;;;;9.82;2.03;;;;;;;;;;5307979;26;20001;-59
2024/04/24 11:43:02;;;;;;;4.03;1.40;;;;;;;;;;5311908;26;20001;-59
2024/04/24 11:45:29;;;;;;;1.77;1.23;;;;;;;;;;5310751;26;20025;-56
2024/04/24 11:47:55;;;;;;;13.73;2.08;;;;;;;;;;5311882;26;20343;-56
2024/04/24 11:50:22;;;;;;;10.25;2.05;;;;;;;;;;5307806;26;20005;-60
2024/04/24 11:52:48;;;;;;;2.60;1.60;;;;;;;;;;5306765;26;20084;-59
2024/04/24 11:55:17;;;;;;;6.50;1.50;;;;;;;;;;5309060;26;20005;-58
2024/04/24 11:57:44;;;;;;;6.15;1.52;;;;;;;;;;5307374;26;20012;-57
2024/04/24 12:00:11;;;;;;;2.40;1.30;;;;;;;;;;5308224;26;20016;-58
2024/04/24 12:02:37;;;;;;;3.30;1.45;;;;;;;;;;5306735;26;20083;-59
2024/04/24 12:05:05;;;;;;;9.82;2.33;;;;;;;;;;5307358;26;21031;-57
2024/04/24 12:07:35;;;;;;;4.70;1.42;;;;;;;;;;5307698;26;20009;-57
2024/04/24 12:10:02;;;;;;;6.63;1.58;;;;;;;;;;5309463;26;20007;-59
2024/04/24 12:12:29;;;;;;;8.82;1.88;;;;;;;;;;5307577;26;20001;-58
2024/04/24 12:14:59;;;;;;;8.55;1.98;;;;;;;;;;5277635;26;20016;-57
2024/04/24 12:17:26;;;;;;;7.47;1.90;;;;;;;;;;5307057;26;20048;-60
2024/04/24 12:19:53;;;;;;;7.30;2.10;;;;;;;;;;5309018;26;20530;-64
2024/04/24 12:22:19;;;;;;;4.47;1.35;;;;;;;;;;5310342;26;19997;-56
2024/04/24 12:24:46;;;;;;;7.90;1.98;;;;;;;;;;5309891;26;20084;-56
2024/04/24 12:27:14;;;;;;;7.13;1.90;;;;;;;;;;5304649;26;20014;-57
2024/04/24 12:29:40;;;;;;;8.40;1.67;;;;;;;;;;5307855;26;20001;-55
2024/04/24 12:32:07;;;;;;;5.63;1.75;;;;;;;;;;5309946;26;20023;-62
2024/04/24 12:34:34;;;;;;;7.05;1.85;;;;;;;;;;5306670;26;20454;-58
2024/04/24 12:37:00;;;;;;;15.75;3.47;;;;;;;;;;5276387;26;20028;-61
2024/04/24 12:39:27;;;;;;;12.25;2.70;;;;;;;;;;5306504;26;20049;-60
2024/04/24 12:41:54;;;;;;;12.98;2.63;;;;;;;;;;5305792;26;20455;-57
2024/04/24 12:44:20;;;;;;;6.03;2.10;;;;;;;;;;5277912;26;20026;-57
2024/04/24 12:46:48;;;;;;;19.83;2.45;;;;;;;;;;5310815;26;20323;-57
2024/04/24 12:49:14;;;;;;;12.07;1.90;;;;;;;;;;5310578;26;20028;-59
2024/04/24 12:51:41;;;;;;;14.60;2.15;;;;;;;;;;5305857;26;20006;-60
2024/04/24 12:54:07;;;;;;;13.02;2.67;;;;;;;;;;5306520;26;20008;-54
2024/04/24 12:56:34;;;;;;;24.33;2.63;;;;;;;;;;5306988;26;20084;-57
2024/04/24 12:59:01;;;;;;;12.50;2.42;;;;;;;;;;5309662;26;20012;-58
2024/04/24 13:01:27;;;;;;;16.63;2.63;;;;;;;;;;5305164;26;20403;-58
2024/04/24 13:03:54;;;;;;;11.80;2.35;;;;;;;;;;5309670;26;20113;-56
2024/04/24 13:06:21;;;;;;;18.17;2.92;;;;;;;;;;5297449;26;20569;-57
2024/04/24 13:08:47;;;;;;;18.13;3.08;;;;;;;;;;5269606;26;20027;-58
2024/04/24 13:11:14;;;;;;;13.70;2.75;;;;;;;;;;5270231;26;20113;-60
2024/04/24 13:13:40;;;;;;;15.80;3.28;;;;;;;;;;5305513;26;20002;-58
2024/04/24 13:16:07;;;;;;;14.20;3.40;;;;;;;;;;5309014;26;20987;-60
2024/04/24 13:18:34;;;;;;;11.25;2.40;;;;;;;;;;5305498;26;20022;-54
2024/04/24 13:21:00;;;;;;;26.88;3.17;;;;;;;;;;5305924;26;20009;-61
2024/04/24 13:23:27;;;;;;;26.20;3.97;;;;;;;;;;5307289;26;20005;-61
2024/04/24 13:25:55;;;;;;;23.67;3.10;;;;;;;;;;5310473;26;20103;-59
2024/04/24 13:28:21;;;;;;;49.55;4.47;;;;;;;;;;5308795;26;20063;-63
2024/04/24 13:30:48;;;;;;;15.48;2.88;;;;;;;;;;5310964;26;20414;-61
2024/04/24 13:33:14;;;;;;;13.73;2.35;;;;;;;;;;5308889;26;20018;-57
2024/04/24 13:35:42;;;;;;;10.57;2.20;;;;;;;;;;5301273;26;20001;-57
2024/04/24 13:38:08;;;;;;;15.75;2.90;;;;;;;;;;5310513;26;20466;-59
2024/04/24 13:40:35;;;;;;;4.97;2.20;;;;;;;;;;5311424;26;20008;-56
2024/04/24 13:43:01;;;;;;;12.95;2.25;;;;;;;;;;5309905;26;20005;-57
2024/04/24 13:45:29;;;;;;;5.00;2.50;;;;;;;;;;5307805;26;19997;-59
2024/04/24 13:47:56;;;;;;;14.98;2.45;;;;;;;;;;5307130;26;20005;-58
2024/04/24 13:50:22;;;;;;;9.32;2.80;;;;;;;;;;5309479;26;20009;-61
2024/04/24 13:52:49;;;;;;;17.60;3.28;;;;;;;;;;5303429;26;20056;-63
2024/04/24 13:55:15;;;;;;;10.50;3.53;;;;;;;;;;5311531;26;19998;-57
2024/04/24 13:57:42;;;;;;;17.42;3.08;;;;;;;;;;5311124;26;20032;-54
2024/04/24 14:00:09;;;;;;;24.60;3.10;;;;;;;;;;5310030;26;20505;-57
2024/04/24 14:02:36;;;;;;;16.52;3.40;;;;;;;;;;5310071;26;20056;-58
2024/04/24 14:05:02;;;;;;;21.27;3.30;;;;;;;;;;5308466;26;20037;-57
2024/04/24 14:07:29;;;;;;;23.42;3.50;;;;;;;;;;5304385;26;20072;-59
2024/04/24 14:09:55;;;;;;;29.85;4.50;;;;;;;;;;5309595;26;20360;-55
2024/04/24 14:12:22;;;;;;;29.58;3.78;;;;;;;;;;5308663;26;20012;-56
2024/04/24 14:14:49;;;;;;;36.42;4.95;;;;;;;;;;5310062;26;20013;-59
2024/04/24 14:17:15;;;;;;;24.63;4.28;;;;;;;;;;5310804;26;20018;-57
2024/04/24 14:19:42;;;;;;;17.55;3.83;;;;;;;;;;5309853;26;20937;-61
2024/04/24 14:22:09;;;;;;;20.35;3.55;;;;;;;;;;5305930;26;20067;-61
2024/04/24 14:24:35;;;;;;;11.73;3.10;;;;;;;;;;5303825;26;20041;-59
2024/04/24 14:27:02;;;;;;;7.82;3.05;;;;;;;;;;5307930;26;20005;-65
2024/04/24 14:29:29;;;;;;;4.65;2.60;;;;;;;;;;5276508;26;20002;-60
2024/04/24 14:31:55;;;;;;;12.02;2.95;;;;;;;;;;5306223;26;20607;-60
2024/04/24 14:34:22;;;;;;;12.15;3.05;;;;;;;;;;5307386;26;22579;-57
2024/04/24 14:36:49;;;;;;;13.73;2.47;;;;;;;;;;5310504;26;20492;-57
2024/04/24 14:39:16;;;;;;;15.13;3.28;;;;;;;;;;5290343;26;22403;-56
2024/04/24 14:41:42;;;;;;;30.83;3.70;;;;;;;;;;5300886;26;20009;-56
2024/04/24 14:44:09;;;;;;;11.48;2.50;;;;;;;;;;5304374;26;20001;-58